sensor_id;sensor_type;location;lat;lon;timestamp;P1;durP1;ratioP1;P2;durP2;ratioP2
59824;SDS011;45703;50.898;6.054;2023-03-29T00:00:07;5.97;;;1.85;;
59824;SDS011;45703;50.898;6.054;2023-03-29T00:02:38;6.00;;;2.00;;
59824;SDS011;45703;50.898;6.054;2023-03-29T00:05:05;6.85;;;1.88;;
59824;SDS011;45703;50.898;6.054;2023-03-29T00:07:31;4.97;;;1.60;;
59824;SDS011;45703;50.898;6.054;2023-03-29T00:10:00;6.80;;;2.00;;
59824;SDS011;45703;50.898;6.054;2023-03-29T00:12:28;6.45;;;1.80;;
59824;SDS011;45703;50.898;6.054;2023-03-29T00:14:54;5.45;;;2.00;;
59824;SDS011;45703;50.898;6.054;2023-03-29T00:17:20;6.40;;;2.05;;
59824;SDS011;45703;50.898;6.054;2023-03-29T00:19:46;5.15;;;1.55;;
59824;SDS011;45703;50.898;6.054;2023-03-29T00:22:12;5.15;;;1.58;;
59824;SDS011;45703;50.898;6.054;2023-03-29T00:24:38;5.97;;;1.60;;
59824;SDS011;45703;50.898;6.054;2023-03-29T00:27:03;5.72;;;1.73;;
59824;SDS011;45703;50.898;6.054;2023-03-29T00:29:29;5.40;;;1.60;;
59824;SDS011;45703;50.898;6.054;2023-03-29T00:31:54;6.10;;;1.70;;
59824;SDS011;45703;50.898;6.054;2023-03-29T00:34:20;5.50;;;1.48;;
59824;SDS011;45703;50.898;6.054;2023-03-29T00:36:47;6.25;;;2.50;;
59824;SDS011;45703;50.898;6.054;2023-03-29T00:39:15;6.13;;;1.90;;
59824;SDS011;45703;50.898;6.054;2023-03-29T00:41:43;4.43;;;1.50;;
59824;SDS011;45703;50.898;6.054;2023-03-29T00:47:12;6.75;;;2.00;;
59824;SDS011;45703;50.898;6.054;2023-03-29T00:49:38;6.75;;;2.10;;
59824;SDS011;45703;50.898;6.054;2023-03-29T00:52:04;5.13;;;1.73;;
59824;SDS011;45703;50.898;6.054;2023-03-29T00:54:30;5.72;;;1.95;;
59824;SDS011;45703;50.898;6.054;2023-03-29T00:56:56;6.53;;;1.83;;
59824;SDS011;45703;50.898;6.054;2023-03-29T01:01:57;6.90;;;2.17;;
59824;SDS011;45703;50.898;6.054;2023-03-29T01:09:33;6.25;;;2.00;;
59824;SDS011;45703;50.898;6.054;2023-03-29T01:14:38;6.72;;;1.88;;
59824;SDS011;45703;50.898;6.054;2023-03-29T01:17:09;5.25;;;1.70;;
59824;SDS011;45703;50.898;6.054;2023-03-29T01:19:37;5.80;;;1.95;;
59824;SDS011;45703;50.898;6.054;2023-03-29T01:22:29;6.43;;;1.73;;
59824;SDS011;45703;50.898;6.054;2023-03-29T01:28:03;6.57;;;2.08;;
59824;SDS011;45703;50.898;6.054;2023-03-29T01:33:41;7.30;;;1.90;;
59824;SDS011;45703;50.898;6.054;2023-03-29T01:36:12;6.28;;;1.95;;
59824;SDS011;45703;50.898;6.054;2023-03-29T01:39:01;6.40;;;1.80;;
59824;SDS011;45703;50.898;6.054;2023-03-29T01:44:05;6.85;;;1.95;;
59824;SDS011;45703;50.898;6.054;2023-03-29T01:46:44;6.38;;;1.98;;
59824;SDS011;45703;50.898;6.054;2023-03-29T01:49:20;7.75;;;1.90;;
59824;SDS011;45703;50.898;6.054;2023-03-29T01:51:54;6.95;;;2.28;;
59824;SDS011;45703;50.898;6.054;2023-03-29T01:54:30;5.43;;;1.70;;
59824;SDS011;45703;50.898;6.054;2023-03-29T01:56:59;4.35;;;1.52;;
59824;SDS011;45703;50.898;6.054;2023-03-29T01:59:30;6.65;;;1.80;;
59824;SDS011;45703;50.898;6.054;2023-03-29T02:01:59;8.30;;;3.40;;
59824;SDS011;45703;50.898;6.054;2023-03-29T02:04:33;5.72;;;1.70;;
59824;SDS011;45703;50.898;6.054;2023-03-29T02:07:03;7.38;;;1.92;;
59824;SDS011;45703;50.898;6.054;2023-03-29T02:09:32;7.70;;;2.07;;
59824;SDS011;45703;50.898;6.054;2023-03-29T02:12:01;5.45;;;1.88;;
59824;SDS011;45703;50.898;6.054;2023-03-29T02:14:28;4.72;;;1.40;;
59824;SDS011;45703;50.898;6.054;2023-03-29T02:16:54;6.78;;;1.98;;
59824;SDS011;45703;50.898;6.054;2023-03-29T02:19:19;6.25;;;1.95;;
59824;SDS011;45703;50.898;6.054;2023-03-29T02:22:06;5.70;;;2.10;;
59824;SDS011;45703;50.898;6.054;2023-03-29T02:24:34;5.32;;;1.75;;
59824;SDS011;45703;50.898;6.054;2023-03-29T02:27:01;6.20;;;1.92;;
59824;SDS011;45703;50.898;6.054;2023-03-29T02:29:28;6.97;;;2.25;;
59824;SDS011;45703;50.898;6.054;2023-03-29T02:31:56;6.10;;;1.92;;
59824;SDS011;45703;50.898;6.054;2023-03-29T02:34:35;5.85;;;1.70;;
59824;SDS011;45703;50.898;6.054;2023-03-29T02:37:08;5.70;;;1.70;;
59824;SDS011;45703;50.898;6.054;2023-03-29T02:39:39;5.25;;;1.90;;
59824;SDS011;45703;50.898;6.054;2023-03-29T02:42:06;5.38;;;1.75;;
59824;SDS011;45703;50.898;6.054;2023-03-29T02:44:32;6.40;;;1.90;;
59824;SDS011;45703;50.898;6.054;2023-03-29T02:47:04;5.60;;;1.73;;
59824;SDS011;45703;50.898;6.054;2023-03-29T02:49:32;7.05;;;2.05;;
59824;SDS011;45703;50.898;6.054;2023-03-29T02:51:59;6.78;;;2.00;;
59824;SDS011;45703;50.898;6.054;2023-03-29T02:54:32;5.53;;;1.70;;
59824;SDS011;45703;50.898;6.054;2023-03-29T02:56:59;6.05;;;1.60;;
59824;SDS011;45703;50.898;6.054;2023-03-29T02:59:30;6.82;;;1.75;;
59824;SDS011;45703;50.898;6.054;2023-03-29T03:01:57;7.45;;;1.88;;
59824;SDS011;45703;50.898;6.054;2023-03-29T03:04:23;6.40;;;1.88;;
59824;SDS011;45703;50.898;6.054;2023-03-29T03:06:49;6.57;;;2.08;;
59824;SDS011;45703;50.898;6.054;2023-03-29T03:09:15;6.88;;;1.90;;
59824;SDS011;45703;50.898;6.054;2023-03-29T03:11:40;6.03;;;1.60;;
59824;SDS011;45703;50.898;6.054;2023-03-29T03:14:06;5.55;;;1.75;;
59824;SDS011;45703;50.898;6.054;2023-03-29T03:16:32;5.93;;;1.60;;
59824;SDS011;45703;50.898;6.054;2023-03-29T03:18:57;5.25;;;1.70;;
59824;SDS011;45703;50.898;6.054;2023-03-29T03:21:23;5.95;;;1.75;;
59824;SDS011;45703;50.898;6.054;2023-03-29T03:23:48;5.72;;;1.88;;
59824;SDS011;45703;50.898;6.054;2023-03-29T03:26:15;6.10;;;1.90;;
59824;SDS011;45703;50.898;6.054;2023-03-29T03:28:42;5.65;;;1.80;;
59824;SDS011;45703;50.898;6.054;2023-03-29T03:31:07;6.97;;;1.85;;
59824;SDS011;45703;50.898;6.054;2023-03-29T03:33:33;6.72;;;1.85;;
59824;SDS011;45703;50.898;6.054;2023-03-29T03:35:58;5.50;;;1.70;;
59824;SDS011;45703;50.898;6.054;2023-03-29T03:38:30;6.95;;;1.83;;
59824;SDS011;45703;50.898;6.054;2023-03-29T03:40:56;5.70;;;1.75;;
59824;SDS011;45703;50.898;6.054;2023-03-29T03:43:22;5.65;;;1.90;;
59824;SDS011;45703;50.898;6.054;2023-03-29T03:45:48;6.60;;;2.00;;
59824;SDS011;45703;50.898;6.054;2023-03-29T03:48:13;6.00;;;1.70;;
59824;SDS011;45703;50.898;6.054;2023-03-29T03:50:39;5.30;;;1.70;;
59824;SDS011;45703;50.898;6.054;2023-03-29T03:53:05;5.38;;;1.50;;
59824;SDS011;45703;50.898;6.054;2023-03-29T03:55:31;5.55;;;1.40;;
59824;SDS011;45703;50.898;6.054;2023-03-29T03:57:57;5.95;;;1.90;;
59824;SDS011;45703;50.898;6.054;2023-03-29T04:00:24;5.68;;;1.83;;
59824;SDS011;45703;50.898;6.054;2023-03-29T04:02:51;5.38;;;1.95;;
59824;SDS011;45703;50.898;6.054;2023-03-29T04:05:18;5.82;;;1.70;;
59824;SDS011;45703;50.898;6.054;2023-03-29T04:07:44;5.30;;;1.55;;
59824;SDS011;45703;50.898;6.054;2023-03-29T04:10:13;6.18;;;1.77;;
59824;SDS011;45703;50.898;6.054;2023-03-29T04:12:38;5.25;;;1.80;;
59824;SDS011;45703;50.898;6.054;2023-03-29T04:15:07;5.45;;;1.70;;
59824;SDS011;45703;50.898;6.054;2023-03-29T04:17:34;4.38;;;1.40;;
59824;SDS011;45703;50.898;6.054;2023-03-29T04:20:00;6.85;;;1.83;;
59824;SDS011;45703;50.898;6.054;2023-03-29T04:22:30;5.70;;;1.75;;
59824;SDS011;45703;50.898;6.054;2023-03-29T04:24:55;6.28;;;2.05;;
59824;SDS011;45703;50.898;6.054;2023-03-29T04:27:21;5.97;;;1.85;;
59824;SDS011;45703;50.898;6.054;2023-03-29T04:29:46;6.47;;;1.70;;
59824;SDS011;45703;50.898;6.054;2023-03-29T04:32:12;6.70;;;1.80;;
59824;SDS011;45703;50.898;6.054;2023-03-29T04:34:37;5.72;;;1.70;;
59824;SDS011;45703;50.898;6.054;2023-03-29T04:37:02;7.72;;;2.00;;
59824;SDS011;45703;50.898;6.054;2023-03-29T04:39:34;5.50;;;1.80;;
59824;SDS011;45703;50.898;6.054;2023-03-29T04:42:02;5.95;;;1.80;;
59824;SDS011;45703;50.898;6.054;2023-03-29T04:44:29;6.13;;;1.95;;
59824;SDS011;45703;50.898;6.054;2023-03-29T04:46:57;4.90;;;1.63;;
59824;SDS011;45703;50.898;6.054;2023-03-29T04:49:23;5.18;;;1.58;;
59824;SDS011;45703;50.898;6.054;2023-03-29T04:51:49;6.00;;;2.00;;
59824;SDS011;45703;50.898;6.054;2023-03-29T04:54:14;6.13;;;1.83;;
59824;SDS011;45703;50.898;6.054;2023-03-29T04:56:40;5.38;;;1.80;;
59824;SDS011;45703;50.898;6.054;2023-03-29T04:59:05;5.30;;;1.63;;
59824;SDS011;45703;50.898;6.054;2023-03-29T05:01:31;6.70;;;1.92;;
59824;SDS011;45703;50.898;6.054;2023-03-29T05:03:56;6.40;;;1.80;;
59824;SDS011;45703;50.898;6.054;2023-03-29T05:06:22;6.82;;;1.60;;
59824;SDS011;45703;50.898;6.054;2023-03-29T05:08:47;6.90;;;2.00;;
59824;SDS011;45703;50.898;6.054;2023-03-29T05:11:13;7.60;;;2.30;;
59824;SDS011;45703;50.898;6.054;2023-03-29T05:13:39;5.25;;;1.67;;
59824;SDS011;45703;50.898;6.054;2023-03-29T05:16:05;5.65;;;1.90;;
59824;SDS011;45703;50.898;6.054;2023-03-29T05:18:31;6.18;;;1.83;;
59824;SDS011;45703;50.898;6.054;2023-03-29T05:20:57;6.93;;;1.88;;
59824;SDS011;45703;50.898;6.054;2023-03-29T05:23:23;5.90;;;1.90;;
59824;SDS011;45703;50.898;6.054;2023-03-29T05:25:50;7.00;;;1.90;;
59824;SDS011;45703;50.898;6.054;2023-03-29T05:28:17;5.72;;;1.98;;
59824;SDS011;45703;50.898;6.054;2023-03-29T05:30:43;5.90;;;1.90;;
59824;SDS011;45703;50.898;6.054;2023-03-29T05:33:09;6.25;;;2.03;;
59824;SDS011;45703;50.898;6.054;2023-03-29T05:35:35;6.35;;;2.05;;
59824;SDS011;45703;50.898;6.054;2023-03-29T05:38:01;6.85;;;2.20;;
59824;SDS011;45703;50.898;6.054;2023-03-29T05:40:28;7.47;;;2.15;;
59824;SDS011;45703;50.898;6.054;2023-03-29T05:42:55;5.68;;;2.10;;
59824;SDS011;45703;50.898;6.054;2023-03-29T05:45:21;6.93;;;1.95;;
59824;SDS011;45703;50.898;6.054;2023-03-29T05:47:47;5.07;;;1.77;;
59824;SDS011;45703;50.898;6.054;2023-03-29T05:50:12;7.18;;;2.10;;
59824;SDS011;45703;50.898;6.054;2023-03-29T05:52:37;7.53;;;2.38;;
59824;SDS011;45703;50.898;6.054;2023-03-29T05:55:05;6.88;;;1.98;;
59824;SDS011;45703;50.898;6.054;2023-03-29T05:57:34;7.15;;;1.90;;
59824;SDS011;45703;50.898;6.054;2023-03-29T06:00:01;6.28;;;2.22;;
59824;SDS011;45703;50.898;6.054;2023-03-29T06:02:59;5.97;;;1.95;;
59824;SDS011;45703;50.898;6.054;2023-03-29T06:05:25;5.68;;;1.80;;
59824;SDS011;45703;50.898;6.054;2023-03-29T06:07:51;5.90;;;2.00;;
59824;SDS011;45703;50.898;6.054;2023-03-29T06:10:16;6.78;;;2.15;;
59824;SDS011;45703;50.898;6.054;2023-03-29T06:12:42;6.40;;;1.90;;
59824;SDS011;45703;50.898;6.054;2023-03-29T06:15:09;5.82;;;1.90;;
59824;SDS011;45703;50.898;6.054;2023-03-29T06:17:34;5.90;;;1.90;;
59824;SDS011;45703;50.898;6.054;2023-03-29T06:20:00;6.78;;;2.08;;
59824;SDS011;45703;50.898;6.054;2023-03-29T06:22:34;5.70;;;1.88;;
59824;SDS011;45703;50.898;6.054;2023-03-29T06:25:01;5.88;;;1.88;;
59824;SDS011;45703;50.898;6.054;2023-03-29T06:27:27;7.10;;;2.15;;
59824;SDS011;45703;50.898;6.054;2023-03-29T06:29:52;6.03;;;2.10;;
59824;SDS011;45703;50.898;6.054;2023-03-29T06:32:18;5.63;;;2.25;;
59824;SDS011;45703;50.898;6.054;2023-03-29T06:34:44;7.45;;;2.05;;
59824;SDS011;45703;50.898;6.054;2023-03-29T06:37:09;6.90;;;1.90;;
59824;SDS011;45703;50.898;6.054;2023-03-29T06:39:34;9.13;;;2.42;;
59824;SDS011;45703;50.898;6.054;2023-03-29T06:42:00;7.05;;;2.40;;
59824;SDS011;45703;50.898;6.054;2023-03-29T06:44:25;8.30;;;2.50;;
59824;SDS011;45703;50.898;6.054;2023-03-29T06:46:52;5.55;;;2.03;;
59824;SDS011;45703;50.898;6.054;2023-03-29T06:49:18;9.27;;;3.22;;
59824;SDS011;45703;50.898;6.054;2023-03-29T06:51:43;6.53;;;2.35;;
59824;SDS011;45703;50.898;6.054;2023-03-29T06:54:09;7.10;;;2.42;;
59824;SDS011;45703;50.898;6.054;2023-03-29T06:56:35;6.22;;;2.17;;
59824;SDS011;45703;50.898;6.054;2023-03-29T06:59:01;7.40;;;2.30;;
59824;SDS011;45703;50.898;6.054;2023-03-29T07:01:27;7.35;;;2.40;;
59824;SDS011;45703;50.898;6.054;2023-03-29T07:03:52;5.85;;;2.15;;
59824;SDS011;45703;50.898;6.054;2023-03-29T07:06:18;7.95;;;2.22;;
59824;SDS011;45703;50.898;6.054;2023-03-29T07:08:46;8.02;;;2.33;;
59824;SDS011;45703;50.898;6.054;2023-03-29T07:11:14;9.32;;;2.55;;
59824;SDS011;45703;50.898;6.054;2023-03-29T07:13:47;6.80;;;2.30;;
59824;SDS011;45703;50.898;6.054;2023-03-29T07:16:14;6.20;;;2.20;;
59824;SDS011;45703;50.898;6.054;2023-03-29T07:18:42;5.90;;;2.28;;
59824;SDS011;45703;50.898;6.054;2023-03-29T07:21:08;7.40;;;2.22;;
59824;SDS011;45703;50.898;6.054;2023-03-29T07:23:36;7.18;;;2.60;;
59824;SDS011;45703;50.898;6.054;2023-03-29T07:26:03;7.28;;;2.38;;
59824;SDS011;45703;50.898;6.054;2023-03-29T07:28:31;8.00;;;2.35;;
59824;SDS011;45703;50.898;6.054;2023-03-29T07:31:02;7.75;;;2.50;;
59824;SDS011;45703;50.898;6.054;2023-03-29T07:33:32;7.22;;;2.30;;
59824;SDS011;45703;50.898;6.054;2023-03-29T07:35:58;8.05;;;1.83;;
59824;SDS011;45703;50.898;6.054;2023-03-29T07:38:24;7.25;;;2.10;;
59824;SDS011;45703;50.898;6.054;2023-03-29T07:40:51;6.75;;;2.08;;
59824;SDS011;45703;50.898;6.054;2023-03-29T07:43:17;7.15;;;2.30;;
59824;SDS011;45703;50.898;6.054;2023-03-29T07:45:43;6.63;;;2.22;;
59824;SDS011;45703;50.898;6.054;2023-03-29T07:48:08;7.95;;;2.40;;
59824;SDS011;45703;50.898;6.054;2023-03-29T07:50:34;8.73;;;2.33;;
59824;SDS011;45703;50.898;6.054;2023-03-29T07:52:59;6.03;;;1.98;;
59824;SDS011;45703;50.898;6.054;2023-03-29T07:55:25;7.65;;;2.50;;
59824;SDS011;45703;50.898;6.054;2023-03-29T07:57:51;6.70;;;2.50;;
59824;SDS011;45703;50.898;6.054;2023-03-29T08:00:17;7.85;;;2.20;;
59824;SDS011;45703;50.898;6.054;2023-03-29T08:02:47;7.10;;;2.47;;
59824;SDS011;45703;50.898;6.054;2023-03-29T08:05:14;7.45;;;2.20;;
59824;SDS011;45703;50.898;6.054;2023-03-29T08:07:41;5.97;;;2.05;;
59824;SDS011;45703;50.898;6.054;2023-03-29T08:10:08;7.10;;;2.30;;
59824;SDS011;45703;50.898;6.054;2023-03-29T08:12:37;6.57;;;2.40;;
59824;SDS011;45703;50.898;6.054;2023-03-29T08:15:03;7.72;;;2.42;;
59824;SDS011;45703;50.898;6.054;2023-03-29T08:17:32;7.15;;;1.95;;
59824;SDS011;45703;50.898;6.054;2023-03-29T08:19:58;6.03;;;2.08;;
59824;SDS011;45703;50.898;6.054;2023-03-29T08:22:24;7.53;;;2.25;;
59824;SDS011;45703;50.898;6.054;2023-03-29T08:24:49;7.15;;;2.63;;
59824;SDS011;45703;50.898;6.054;2023-03-29T08:27:15;6.65;;;2.35;;
59824;SDS011;45703;50.898;6.054;2023-03-29T08:29:41;6.30;;;2.00;;
59824;SDS011;45703;50.898;6.054;2023-03-29T08:32:08;6.63;;;2.10;;
59824;SDS011;45703;50.898;6.054;2023-03-29T08:34:34;6.15;;;2.20;;
59824;SDS011;45703;50.898;6.054;2023-03-29T08:37:00;5.97;;;2.13;;
59824;SDS011;45703;50.898;6.054;2023-03-29T08:39:27;6.45;;;2.10;;
59824;SDS011;45703;50.898;6.054;2023-03-29T08:50:10;5.53;;;1.90;;
59824;SDS011;45703;50.898;6.054;2023-03-29T08:52:39;6.55;;;2.00;;
59824;SDS011;45703;50.898;6.054;2023-03-29T08:55:14;6.15;;;2.05;;
59824;SDS011;45703;50.898;6.054;2023-03-29T08:58:04;7.32;;;2.30;;
59824;SDS011;45703;50.898;6.054;2023-03-29T09:00:34;9.98;;;2.33;;
59824;SDS011;45703;50.898;6.054;2023-03-29T09:03:08;7.47;;;2.33;;
59824;SDS011;45703;50.898;6.054;2023-03-29T09:05:42;8.20;;;2.45;;
59824;SDS011;45703;50.898;6.054;2023-03-29T09:08:12;7.10;;;2.03;;
59824;SDS011;45703;50.898;6.054;2023-03-29T09:16:15;6.15;;;1.92;;
59824;SDS011;45703;50.898;6.054;2023-03-29T09:26:59;8.13;;;2.40;;
59824;SDS011;45703;50.898;6.054;2023-03-29T09:29:34;7.18;;;2.22;;
59824;SDS011;45703;50.898;6.054;2023-03-29T09:32:05;7.53;;;2.28;;
59824;SDS011;45703;50.898;6.054;2023-03-29T09:34:44;6.95;;;2.30;;
59824;SDS011;45703;50.898;6.054;2023-03-29T09:37:24;6.40;;;1.95;;
59824;SDS011;45703;50.898;6.054;2023-03-29T09:39:57;7.57;;;2.08;;
59824;SDS011;45703;50.898;6.054;2023-03-29T09:42:24;7.05;;;2.30;;
59824;SDS011;45703;50.898;6.054;2023-03-29T09:44:58;9.82;;;2.40;;
59824;SDS011;45703;50.898;6.054;2023-03-29T09:47:31;6.93;;;3.55;;
59824;SDS011;45703;50.898;6.054;2023-03-29T09:50:03;6.10;;;2.20;;
59824;SDS011;45703;50.898;6.054;2023-03-29T09:52:35;5.95;;;2.22;;
59824;SDS011;45703;50.898;6.054;2023-03-29T09:55:01;7.53;;;2.60;;
59824;SDS011;45703;50.898;6.054;2023-03-29T09:57:28;8.27;;;2.50;;
59824;SDS011;45703;50.898;6.054;2023-03-29T09:59:54;7.90;;;2.45;;
59824;SDS011;45703;50.898;6.054;2023-03-29T10:02:21;8.07;;;2.25;;
59824;SDS011;45703;50.898;6.054;2023-03-29T10:04:51;8.38;;;2.33;;
59824;SDS011;45703;50.898;6.054;2023-03-29T10:07:19;7.18;;;2.40;;
59824;SDS011;45703;50.898;6.054;2023-03-29T10:09:45;8.68;;;2.70;;
59824;SDS011;45703;50.898;6.054;2023-03-29T10:12:12;7.20;;;2.55;;
59824;SDS011;45703;50.898;6.054;2023-03-29T10:14:49;7.05;;;2.33;;
59824;SDS011;45703;50.898;6.054;2023-03-29T10:17:18;6.80;;;2.45;;
59824;SDS011;45703;50.898;6.054;2023-03-29T10:19:50;6.13;;;2.17;;
59824;SDS011;45703;50.898;6.054;2023-03-29T10:24:56;7.85;;;2.45;;
59824;SDS011;45703;50.898;6.054;2023-03-29T10:27:28;8.50;;;2.47;;
59824;SDS011;45703;50.898;6.054;2023-03-29T10:29:59;10.25;;;2.85;;
59824;SDS011;45703;50.898;6.054;2023-03-29T10:32:36;6.38;;;2.63;;
59824;SDS011;45703;50.898;6.054;2023-03-29T10:35:11;8.68;;;2.83;;
59824;SDS011;45703;50.898;6.054;2023-03-29T10:37:47;7.57;;;2.42;;
59824;SDS011;45703;50.898;6.054;2023-03-29T10:40:19;8.02;;;2.83;;
59824;SDS011;45703;50.898;6.054;2023-03-29T10:42:50;6.70;;;2.28;;
59824;SDS011;45703;50.898;6.054;2023-03-29T10:45:24;8.13;;;2.63;;
59824;SDS011;45703;50.898;6.054;2023-03-29T10:47:56;6.72;;;2.30;;
59824;SDS011;45703;50.898;6.054;2023-03-29T10:50:23;8.10;;;2.80;;
59824;SDS011;45703;50.898;6.054;2023-03-29T10:52:49;6.72;;;2.60;;
59824;SDS011;45703;50.898;6.054;2023-03-29T10:55:17;7.20;;;2.40;;
59824;SDS011;45703;50.898;6.054;2023-03-29T11:13:50;9.55;;;2.65;;
59824;SDS011;45703;50.898;6.054;2023-03-29T11:30:56;6.60;;;2.05;;
59824;SDS011;45703;50.898;6.054;2023-03-29T11:34:00;7.55;;;2.38;;
59824;SDS011;45703;50.898;6.054;2023-03-29T11:42:49;6.00;;;1.75;;
59824;SDS011;45703;50.898;6.054;2023-03-29T11:45:25;5.50;;;1.90;;
59824;SDS011;45703;50.898;6.054;2023-03-29T11:47:55;7.10;;;1.73;;
59824;SDS011;45703;50.898;6.054;2023-03-29T11:50:41;6.78;;;1.80;;
59824;SDS011;45703;50.898;6.054;2023-03-29T11:53:15;5.65;;;1.77;;
59824;SDS011;45703;50.898;6.054;2023-03-29T11:55:48;5.78;;;1.60;;
59824;SDS011;45703;50.898;6.054;2023-03-29T12:00:47;5.32;;;1.90;;
59824;SDS011;45703;50.898;6.054;2023-03-29T12:08:34;6.47;;;1.70;;
59824;SDS011;45703;50.898;6.054;2023-03-29T12:11:21;5.22;;;1.50;;
59824;SDS011;45703;50.898;6.054;2023-03-29T12:16:34;5.85;;;1.80;;
59824;SDS011;45703;50.898;6.054;2023-03-29T12:19:11;6.10;;;1.88;;
59824;SDS011;45703;50.898;6.054;2023-03-29T12:21:45;5.47;;;1.50;;
59824;SDS011;45703;50.898;6.054;2023-03-29T12:24:12;5.43;;;1.75;;
59824;SDS011;45703;50.898;6.054;2023-03-29T12:27:01;5.25;;;1.45;;
59824;SDS011;45703;50.898;6.054;2023-03-29T12:38:35;6.65;;;2.08;;
59824;SDS011;45703;50.898;6.054;2023-03-29T12:41:08;6.25;;;1.85;;
59824;SDS011;45703;50.898;6.054;2023-03-29T12:43:42;5.00;;;1.52;;
59824;SDS011;45703;50.898;6.054;2023-03-29T12:46:13;6.20;;;2.03;;
59824;SDS011;45703;50.898;6.054;2023-03-29T12:48:42;6.55;;;1.83;;
59824;SDS011;45703;50.898;6.054;2023-03-29T12:51:14;5.70;;;1.83;;
59824;SDS011;45703;50.898;6.054;2023-03-29T12:53:49;6.00;;;1.52;;
59824;SDS011;45703;50.898;6.054;2023-03-29T12:56:21;5.85;;;1.55;;
59824;SDS011;45703;50.898;6.054;2023-03-29T12:58:52;7.40;;;1.90;;
59824;SDS011;45703;50.898;6.054;2023-03-29T13:07:04;5.13;;;1.73;;
59824;SDS011;45703;50.898;6.054;2023-03-29T13:09:21;4.85;;;1.38;;
59824;SDS011;45703;50.898;6.054;2023-03-29T13:11:52;4.95;;;1.55;;
59824;SDS011;45703;50.898;6.054;2023-03-29T13:14:23;5.75;;;1.60;;
59824;SDS011;45703;50.898;6.054;2023-03-29T13:16:51;4.72;;;1.58;;
59824;SDS011;45703;50.898;6.054;2023-03-29T13:25:13;4.53;;;1.65;;
59824;SDS011;45703;50.898;6.054;2023-03-29T13:33:35;5.35;;;1.70;;
59824;SDS011;45703;50.898;6.054;2023-03-29T13:36:27;5.40;;;1.55;;
59824;SDS011;45703;50.898;6.054;2023-03-29T13:39:23;6.10;;;1.70;;
59824;SDS011;45703;50.898;6.054;2023-03-29T13:42:04;5.43;;;1.60;;
59824;SDS011;45703;50.898;6.054;2023-03-29T13:45:11;5.28;;;1.70;;
59824;SDS011;45703;50.898;6.054;2023-03-29T13:47:39;7.15;;;1.98;;
59824;SDS011;45703;50.898;6.054;2023-03-29T13:50:17;5.63;;;1.60;;
59824;SDS011;45703;50.898;6.054;2023-03-29T13:53:08;5.63;;;1.60;;
59824;SDS011;45703;50.898;6.054;2023-03-29T13:55:49;6.47;;;1.80;;
59824;SDS011;45703;50.898;6.054;2023-03-29T13:58:25;5.93;;;1.83;;
59824;SDS011;45703;50.898;6.054;2023-03-29T14:01:00;4.82;;;1.60;;
59824;SDS011;45703;50.898;6.054;2023-03-29T14:03:35;5.85;;;1.75;;
59824;SDS011;45703;50.898;6.054;2023-03-29T14:06:07;7.03;;;1.90;;
59824;SDS011;45703;50.898;6.054;2023-03-29T14:08:36;5.97;;;1.98;;
59824;SDS011;45703;50.898;6.054;2023-03-29T14:11:06;5.63;;;1.50;;
59824;SDS011;45703;50.898;6.054;2023-03-29T14:13:36;6.55;;;1.92;;
59824;SDS011;45703;50.898;6.054;2023-03-29T14:16:08;5.07;;;1.65;;
59824;SDS011;45703;50.898;6.054;2023-03-29T14:18:36;5.25;;;1.67;;
59824;SDS011;45703;50.898;6.054;2023-03-29T14:21:04;5.35;;;1.50;;
59824;SDS011;45703;50.898;6.054;2023-03-29T14:23:32;5.90;;;1.67;;
59824;SDS011;45703;50.898;6.054;2023-03-29T14:26:08;5.10;;;1.40;;
59824;SDS011;45703;50.898;6.054;2023-03-29T14:29:00;6.07;;;1.80;;
59824;SDS011;45703;50.898;6.054;2023-03-29T14:31:29;4.80;;;1.30;;
59824;SDS011;45703;50.898;6.054;2023-03-29T14:33:56;5.72;;;1.50;;
59824;SDS011;45703;50.898;6.054;2023-03-29T14:36:24;5.03;;;1.23;;
59824;SDS011;45703;50.898;6.054;2023-03-29T14:38:52;5.22;;;1.40;;
59824;SDS011;45703;50.898;6.054;2023-03-29T14:41:27;4.72;;;1.40;;
59824;SDS011;45703;50.898;6.054;2023-03-29T14:43:54;4.72;;;1.23;;
59824;SDS011;45703;50.898;6.054;2023-03-29T14:46:20;4.95;;;1.10;;
59824;SDS011;45703;50.898;6.054;2023-03-29T14:48:46;5.32;;;1.45;;
59824;SDS011;45703;50.898;6.054;2023-03-29T14:51:12;4.47;;;1.33;;
59824;SDS011;45703;50.898;6.054;2023-03-29T14:53:38;5.00;;;1.50;;
59824;SDS011;45703;50.898;6.054;2023-03-29T14:56:06;5.15;;;1.33;;
59824;SDS011;45703;50.898;6.054;2023-03-29T14:58:35;5.93;;;1.33;;
59824;SDS011;45703;50.898;6.054;2023-03-29T15:01:05;4.50;;;1.20;;
59824;SDS011;45703;50.898;6.054;2023-03-29T15:03:43;4.22;;;1.20;;
59824;SDS011;45703;50.898;6.054;2023-03-29T15:06:13;6.28;;;1.40;;
59824;SDS011;45703;50.898;6.054;2023-03-29T15:08:39;3.97;;;1.20;;
59824;SDS011;45703;50.898;6.054;2023-03-29T15:11:10;5.18;;;1.48;;
59824;SDS011;45703;50.898;6.054;2023-03-29T15:13:48;4.55;;;1.30;;
59824;SDS011;45703;50.898;6.054;2023-03-29T15:16:19;5.32;;;1.40;;
59824;SDS011;45703;50.898;6.054;2023-03-29T15:18:47;4.40;;;1.20;;
59824;SDS011;45703;50.898;6.054;2023-03-29T15:21:17;4.40;;;1.35;;
59824;SDS011;45703;50.898;6.054;2023-03-29T15:23:47;4.15;;;1.10;;
59824;SDS011;45703;50.898;6.054;2023-03-29T15:26:22;4.95;;;1.30;;
59824;SDS011;45703;50.898;6.054;2023-03-29T15:28:59;4.88;;;1.33;;
59824;SDS011;45703;50.898;6.054;2023-03-29T15:31:53;5.57;;;1.30;;
59824;SDS011;45703;50.898;6.054;2023-03-29T15:34:39;4.57;;;1.40;;
59824;SDS011;45703;50.898;6.054;2023-03-29T15:37:04;4.72;;;1.35;;
59824;SDS011;45703;50.898;6.054;2023-03-29T15:39:31;6.72;;;1.40;;
59824;SDS011;45703;50.898;6.054;2023-03-29T15:41:57;4.78;;;1.40;;
59824;SDS011;45703;50.898;6.054;2023-03-29T15:44:27;4.10;;;1.20;;
59824;SDS011;45703;50.898;6.054;2023-03-29T15:46:56;5.72;;;1.40;;
59824;SDS011;45703;50.898;6.054;2023-03-29T15:49:22;3.58;;;1.00;;
59824;SDS011;45703;50.898;6.054;2023-03-29T15:51:48;5.70;;;1.42;;
59824;SDS011;45703;50.898;6.054;2023-03-29T15:54:13;4.40;;;1.27;;
59824;SDS011;45703;50.898;6.054;2023-03-29T15:56:43;6.00;;;1.40;;
59824;SDS011;45703;50.898;6.054;2023-03-29T15:59:16;4.43;;;1.42;;
59824;SDS011;45703;50.898;6.054;2023-03-29T16:01:42;7.28;;;1.52;;
59824;SDS011;45703;50.898;6.054;2023-03-29T16:04:09;4.28;;;1.20;;
59824;SDS011;45703;50.898;6.054;2023-03-29T16:06:38;4.88;;;1.40;;
59824;SDS011;45703;50.898;6.054;2023-03-29T16:09:03;5.45;;;1.60;;
59824;SDS011;45703;50.898;6.054;2023-03-29T16:11:30;4.95;;;1.38;;
59824;SDS011;45703;50.898;6.054;2023-03-29T16:13:56;4.78;;;1.50;;
59824;SDS011;45703;50.898;6.054;2023-03-29T16:16:22;5.68;;;1.60;;
59824;SDS011;45703;50.898;6.054;2023-03-29T16:18:48;5.00;;;1.30;;
59824;SDS011;45703;50.898;6.054;2023-03-29T16:21:15;6.32;;;1.73;;
59824;SDS011;45703;50.898;6.054;2023-03-29T16:23:45;5.22;;;1.50;;
59824;SDS011;45703;50.898;6.054;2023-03-29T16:26:11;4.60;;;1.35;;
59824;SDS011;45703;50.898;6.054;2023-03-29T16:28:38;4.40;;;1.30;;
59824;SDS011;45703;50.898;6.054;2023-03-29T16:31:04;5.75;;;1.48;;
59824;SDS011;45703;50.898;6.054;2023-03-29T16:33:30;6.53;;;1.50;;
59824;SDS011;45703;50.898;6.054;2023-03-29T16:35:55;5.25;;;1.30;;
59824;SDS011;45703;50.898;6.054;2023-03-29T16:38:21;5.05;;;1.40;;
59824;SDS011;45703;50.898;6.054;2023-03-29T16:40:48;5.85;;;2.25;;
59824;SDS011;45703;50.898;6.054;2023-03-29T16:43:14;4.72;;;1.40;;
59824;SDS011;45703;50.898;6.054;2023-03-29T16:45:40;5.05;;;1.52;;
59824;SDS011;45703;50.898;6.054;2023-03-29T16:48:08;6.68;;;1.70;;
59824;SDS011;45703;50.898;6.054;2023-03-29T16:53:02;5.65;;;1.73;;
59824;SDS011;45703;50.898;6.054;2023-03-29T16:55:28;5.25;;;1.40;;
59824;SDS011;45703;50.898;6.054;2023-03-29T16:57:53;6.28;;;1.70;;
59824;SDS011;45703;50.898;6.054;2023-03-29T17:00:19;5.63;;;1.73;;
59824;SDS011;45703;50.898;6.054;2023-03-29T17:02:46;6.05;;;1.73;;